sensor_id;sensor_type;location;lat;lon;timestamp;P1;durP1;ratioP1;P2;durP2;ratioP2
65096;SDS011;51686;46.758;4.356;2023-06-26T00:00:23;8.55;;;4.20;;
65096;SDS011;51686;46.758;4.356;2023-06-26T00:03:10;7.95;;;4.10;;
65096;SDS011;51686;46.758;4.356;2023-06-26T00:06:01;8.45;;;4.40;;
65096;SDS011;51686;46.758;4.356;2023-06-26T00:08:48;9.10;;;4.30;;
65096;SDS011;51686;46.758;4.356;2023-06-26T00:11:35;8.70;;;4.40;;
65096;SDS011;51686;46.758;4.356;2023-06-26T00:14:22;8.05;;;4.22;;
65096;SDS011;51686;46.758;4.356;2023-06-26T00:17:09;8.35;;;4.30;;
65096;SDS011;51686;46.758;4.356;2023-06-26T00:19:56;7.97;;;4.28;;
65096;SDS011;51686;46.758;4.356;2023-06-26T00:22:42;7.97;;;4.40;;
65096;SDS011;51686;46.758;4.356;2023-06-26T00:25:29;8.63;;;4.55;;
65096;SDS011;51686;46.758;4.356;2023-06-26T00:28:16;7.85;;;4.32;;
65096;SDS011;51686;46.758;4.356;2023-06-26T00:31:03;8.18;;;4.38;;
65096;SDS011;51686;46.758;4.356;2023-06-26T00:33:50;8.05;;;4.18;;
65096;SDS011;51686;46.758;4.356;2023-06-26T00:36:37;8.00;;;4.30;;
65096;SDS011;51686;46.758;4.356;2023-06-26T00:39:24;8.65;;;4.78;;
65096;SDS011;51686;46.758;4.356;2023-06-26T00:42:12;8.70;;;4.60;;
65096;SDS011;51686;46.758;4.356;2023-06-26T00:44:59;8.40;;;4.28;;
65096;SDS011;51686;46.758;4.356;2023-06-26T00:47:46;8.40;;;4.50;;
65096;SDS011;51686;46.758;4.356;2023-06-26T00:50:33;8.68;;;4.68;;
65096;SDS011;51686;46.758;4.356;2023-06-26T00:53:20;8.60;;;4.40;;
65096;SDS011;51686;46.758;4.356;2023-06-26T00:56:08;8.80;;;4.65;;
65096;SDS011;51686;46.758;4.356;2023-06-26T00:58:55;8.13;;;4.30;;
65096;SDS011;51686;46.758;4.356;2023-06-26T01:01:41;8.45;;;4.32;;
65096;SDS011;51686;46.758;4.356;2023-06-26T01:04:28;8.88;;;4.50;;
65096;SDS011;51686;46.758;4.356;2023-06-26T01:07:19;8.75;;;4.55;;
65096;SDS011;51686;46.758;4.356;2023-06-26T01:10:07;8.32;;;4.63;;
65096;SDS011;51686;46.758;4.356;2023-06-26T01:12:55;8.40;;;4.53;;
65096;SDS011;51686;46.758;4.356;2023-06-26T01:15:42;8.52;;;4.60;;
65096;SDS011;51686;46.758;4.356;2023-06-26T01:18:29;8.52;;;4.65;;
65096;SDS011;51686;46.758;4.356;2023-06-26T01:21:17;7.88;;;4.10;;
65096;SDS011;51686;46.758;4.356;2023-06-26T01:24:08;8.10;;;4.22;;
65096;SDS011;51686;46.758;4.356;2023-06-26T01:27:01;9.10;;;4.35;;
65096;SDS011;51686;46.758;4.356;2023-06-26T01:29:50;8.95;;;4.60;;
65096;SDS011;51686;46.758;4.356;2023-06-26T01:32:37;8.15;;;4.13;;
65096;SDS011;51686;46.758;4.356;2023-06-26T01:38:16;8.05;;;4.25;;
65096;SDS011;51686;46.758;4.356;2023-06-26T01:41:04;8.65;;;4.60;;
65096;SDS011;51686;46.758;4.356;2023-06-26T01:44:03;8.33;;;4.30;;
65096;SDS011;51686;46.758;4.356;2023-06-26T01:53:02;8.00;;;4.20;;
65096;SDS011;51686;46.758;4.356;2023-06-26T01:56:00;9.00;;;4.60;;
65096;SDS011;51686;46.758;4.356;2023-06-26T01:58:54;8.40;;;4.38;;
65096;SDS011;51686;46.758;4.356;2023-06-26T02:01:41;8.37;;;4.60;;
65096;SDS011;51686;46.758;4.356;2023-06-26T02:04:28;8.55;;;4.45;;
65096;SDS011;51686;46.758;4.356;2023-06-26T02:07:16;8.93;;;4.43;;
65096;SDS011;51686;46.758;4.356;2023-06-26T02:10:03;8.95;;;4.20;;
65096;SDS011;51686;46.758;4.356;2023-06-26T02:12:50;9.52;;;4.65;;
65096;SDS011;51686;46.758;4.356;2023-06-26T02:15:37;9.10;;;4.90;;
65096;SDS011;51686;46.758;4.356;2023-06-26T02:18:24;9.00;;;4.70;;
65096;SDS011;51686;46.758;4.356;2023-06-26T02:21:10;8.85;;;4.53;;
65096;SDS011;51686;46.758;4.356;2023-06-26T02:23:58;8.95;;;4.90;;
65096;SDS011;51686;46.758;4.356;2023-06-26T02:26:45;8.80;;;4.65;;
65096;SDS011;51686;46.758;4.356;2023-06-26T02:29:32;9.07;;;4.82;;
65096;SDS011;51686;46.758;4.356;2023-06-26T02:32:19;8.20;;;4.38;;
65096;SDS011;51686;46.758;4.356;2023-06-26T02:35:06;8.40;;;4.38;;
65096;SDS011;51686;46.758;4.356;2023-06-26T02:37:53;8.50;;;4.40;;
65096;SDS011;51686;46.758;4.356;2023-06-26T02:40:40;8.55;;;4.45;;
65096;SDS011;51686;46.758;4.356;2023-06-26T02:43:27;7.90;;;4.20;;
65096;SDS011;51686;46.758;4.356;2023-06-26T02:46:14;8.75;;;4.47;;
65096;SDS011;51686;46.758;4.356;2023-06-26T02:49:01;8.48;;;4.50;;
65096;SDS011;51686;46.758;4.356;2023-06-26T02:51:48;9.65;;;5.05;;
65096;SDS011;51686;46.758;4.356;2023-06-26T02:54:34;8.30;;;4.22;;
65096;SDS011;51686;46.758;4.356;2023-06-26T02:57:21;9.05;;;4.60;;
65096;SDS011;51686;46.758;4.356;2023-06-26T03:00:08;8.55;;;4.50;;
65096;SDS011;51686;46.758;4.356;2023-06-26T03:02:56;8.60;;;4.43;;
65096;SDS011;51686;46.758;4.356;2023-06-26T03:05:43;8.90;;;4.50;;
65096;SDS011;51686;46.758;4.356;2023-06-26T03:08:30;8.63;;;4.35;;
65096;SDS011;51686;46.758;4.356;2023-06-26T03:11:18;8.65;;;4.57;;
65096;SDS011;51686;46.758;4.356;2023-06-26T03:14:05;9.90;;;4.70;;
65096;SDS011;51686;46.758;4.356;2023-06-26T03:16:52;8.75;;;4.55;;
65096;SDS011;51686;46.758;4.356;2023-06-26T03:19:39;8.63;;;4.53;;
65096;SDS011;51686;46.758;4.356;2023-06-26T03:22:26;8.35;;;4.20;;
65096;SDS011;51686;46.758;4.356;2023-06-26T03:25:13;9.13;;;4.45;;
65096;SDS011;51686;46.758;4.356;2023-06-26T03:28:00;8.95;;;4.70;;
65096;SDS011;51686;46.758;4.356;2023-06-26T03:30:47;9.13;;;4.43;;
65096;SDS011;51686;46.758;4.356;2023-06-26T03:33:34;9.57;;;4.43;;
65096;SDS011;51686;46.758;4.356;2023-06-26T03:36:21;8.48;;;4.78;;
65096;SDS011;51686;46.758;4.356;2023-06-26T03:39:08;7.93;;;4.35;;
65096;SDS011;51686;46.758;4.356;2023-06-26T03:41:55;9.13;;;4.72;;
65096;SDS011;51686;46.758;4.356;2023-06-26T03:44:42;8.45;;;4.45;;
65096;SDS011;51686;46.758;4.356;2023-06-26T03:47:28;9.70;;;4.90;;
65096;SDS011;51686;46.758;4.356;2023-06-26T03:50:16;8.60;;;4.57;;
65096;SDS011;51686;46.758;4.356;2023-06-26T03:53:03;9.30;;;4.88;;
65096;SDS011;51686;46.758;4.356;2023-06-26T03:55:49;8.60;;;4.68;;
65096;SDS011;51686;46.758;4.356;2023-06-26T03:58:36;8.65;;;4.82;;
65096;SDS011;51686;46.758;4.356;2023-06-26T04:01:23;9.25;;;4.75;;
65096;SDS011;51686;46.758;4.356;2023-06-26T04:04:10;9.20;;;5.18;;
65096;SDS011;51686;46.758;4.356;2023-06-26T04:06:57;9.48;;;4.97;;
65096;SDS011;51686;46.758;4.356;2023-06-26T04:09:45;9.00;;;4.60;;
65096;SDS011;51686;46.758;4.356;2023-06-26T04:12:32;8.65;;;4.75;;
65096;SDS011;51686;46.758;4.356;2023-06-26T04:15:20;9.32;;;5.05;;
65096;SDS011;51686;46.758;4.356;2023-06-26T04:18:06;8.82;;;4.97;;
65096;SDS011;51686;46.758;4.356;2023-06-26T04:21:10;9.45;;;5.10;;
65096;SDS011;51686;46.758;4.356;2023-06-26T04:23:58;8.68;;;4.50;;
65096;SDS011;51686;46.758;4.356;2023-06-26T04:26:45;9.00;;;4.63;;
65096;SDS011;51686;46.758;4.356;2023-06-26T04:29:32;8.90;;;4.40;;
65096;SDS011;51686;46.758;4.356;2023-06-26T04:32:19;8.98;;;4.70;;
65096;SDS011;51686;46.758;4.356;2023-06-26T04:35:06;8.38;;;4.57;;
65096;SDS011;51686;46.758;4.356;2023-06-26T04:37:53;9.15;;;4.78;;
65096;SDS011;51686;46.758;4.356;2023-06-26T04:40:40;8.98;;;4.95;;
65096;SDS011;51686;46.758;4.356;2023-06-26T04:43:27;8.43;;;4.63;;
65096;SDS011;51686;46.758;4.356;2023-06-26T04:46:14;9.63;;;5.18;;
65096;SDS011;51686;46.758;4.356;2023-06-26T04:49:00;9.32;;;5.10;;
65096;SDS011;51686;46.758;4.356;2023-06-26T04:51:49;8.80;;;5.05;;
65096;SDS011;51686;46.758;4.356;2023-06-26T04:54:37;9.75;;;5.07;;
65096;SDS011;51686;46.758;4.356;2023-06-26T04:57:24;8.60;;;4.78;;
65096;SDS011;51686;46.758;4.356;2023-06-26T05:00:11;9.13;;;4.80;;
65096;SDS011;51686;46.758;4.356;2023-06-26T05:02:59;8.93;;;4.63;;
65096;SDS011;51686;46.758;4.356;2023-06-26T05:05:47;9.07;;;5.40;;
65096;SDS011;51686;46.758;4.356;2023-06-26T05:08:36;8.77;;;4.78;;
65096;SDS011;51686;46.758;4.356;2023-06-26T05:11:23;9.27;;;4.82;;
65096;SDS011;51686;46.758;4.356;2023-06-26T05:14:11;9.20;;;5.07;;
65096;SDS011;51686;46.758;4.356;2023-06-26T05:16:59;9.32;;;5.13;;
65096;SDS011;51686;46.758;4.356;2023-06-26T05:19:46;9.02;;;5.00;;
65096;SDS011;51686;46.758;4.356;2023-06-26T05:22:33;9.75;;;5.25;;
65096;SDS011;51686;46.758;4.356;2023-06-26T05:25:21;9.13;;;5.20;;
65096;SDS011;51686;46.758;4.356;2023-06-26T05:28:09;10.13;;;5.65;;
65096;SDS011;51686;46.758;4.356;2023-06-26T05:30:58;8.90;;;4.90;;
65096;SDS011;51686;46.758;4.356;2023-06-26T05:33:45;9.27;;;5.38;;
65096;SDS011;51686;46.758;4.356;2023-06-26T05:36:33;8.85;;;5.30;;
65096;SDS011;51686;46.758;4.356;2023-06-26T05:39:21;9.87;;;5.53;;
65096;SDS011;51686;46.758;4.356;2023-06-26T05:42:08;8.82;;;4.88;;
65096;SDS011;51686;46.758;4.356;2023-06-26T05:44:55;8.87;;;4.90;;
65096;SDS011;51686;46.758;4.356;2023-06-26T05:47:42;9.70;;;4.85;;
65096;SDS011;51686;46.758;4.356;2023-06-26T05:50:30;9.38;;;5.50;;
65096;SDS011;51686;46.758;4.356;2023-06-26T05:53:17;9.35;;;5.40;;
65096;SDS011;51686;46.758;4.356;2023-06-26T05:56:04;9.38;;;5.18;;
65096;SDS011;51686;46.758;4.356;2023-06-26T05:58:51;9.55;;;5.70;;
65096;SDS011;51686;46.758;4.356;2023-06-26T06:01:39;10.77;;;5.68;;
65096;SDS011;51686;46.758;4.356;2023-06-26T06:04:26;9.25;;;5.25;;
65096;SDS011;51686;46.758;4.356;2023-06-26T06:07:13;9.20;;;5.43;;
65096;SDS011;51686;46.758;4.356;2023-06-26T06:10:00;9.85;;;5.55;;
65096;SDS011;51686;46.758;4.356;2023-06-26T06:12:47;10.23;;;5.47;;
65096;SDS011;51686;46.758;4.356;2023-06-26T06:15:34;9.40;;;5.18;;
65096;SDS011;51686;46.758;4.356;2023-06-26T06:18:21;9.88;;;5.35;;
65096;SDS011;51686;46.758;4.356;2023-06-26T06:21:08;10.65;;;5.40;;
65096;SDS011;51686;46.758;4.356;2023-06-26T06:23:55;9.10;;;5.35;;
65096;SDS011;51686;46.758;4.356;2023-06-26T06:26:42;10.00;;;5.45;;
65096;SDS011;51686;46.758;4.356;2023-06-26T06:29:29;9.80;;;5.55;;
65096;SDS011;51686;46.758;4.356;2023-06-26T06:32:16;9.88;;;5.43;;
65096;SDS011;51686;46.758;4.356;2023-06-26T06:35:03;9.88;;;5.20;;
65096;SDS011;51686;46.758;4.356;2023-06-26T06:37:56;9.50;;;4.70;;
65096;SDS011;51686;46.758;4.356;2023-06-26T06:40:43;9.02;;;5.13;;
65096;SDS011;51686;46.758;4.356;2023-06-26T06:43:29;9.88;;;5.45;;
65096;SDS011;51686;46.758;4.356;2023-06-26T06:46:16;10.07;;;5.53;;
65096;SDS011;51686;46.758;4.356;2023-06-26T06:49:03;10.07;;;5.72;;
65096;SDS011;51686;46.758;4.356;2023-06-26T06:51:50;10.27;;;5.78;;
65096;SDS011;51686;46.758;4.356;2023-06-26T06:54:53;10.05;;;5.07;;
65096;SDS011;51686;46.758;4.356;2023-06-26T06:57:41;9.95;;;5.47;;
65096;SDS011;51686;46.758;4.356;2023-06-26T07:00:28;9.30;;;4.97;;
65096;SDS011;51686;46.758;4.356;2023-06-26T07:03:15;9.85;;;5.32;;
65096;SDS011;51686;46.758;4.356;2023-06-26T07:06:02;8.57;;;4.80;;
65096;SDS011;51686;46.758;4.356;2023-06-26T07:08:50;10.38;;;5.32;;
65096;SDS011;51686;46.758;4.356;2023-06-26T07:11:37;9.53;;;5.50;;
65096;SDS011;51686;46.758;4.356;2023-06-26T07:14:24;10.45;;;5.32;;
65096;SDS011;51686;46.758;4.356;2023-06-26T07:17:11;9.43;;;5.13;;
65096;SDS011;51686;46.758;4.356;2023-06-26T07:19:59;9.88;;;5.30;;
65096;SDS011;51686;46.758;4.356;2023-06-26T07:22:48;10.20;;;5.30;;
65096;SDS011;51686;46.758;4.356;2023-06-26T07:25:35;8.93;;;4.78;;
65096;SDS011;51686;46.758;4.356;2023-06-26T07:28:22;13.05;;;6.05;;
65096;SDS011;51686;46.758;4.356;2023-06-26T07:31:09;11.13;;;5.63;;
65096;SDS011;51686;46.758;4.356;2023-06-26T07:33:56;10.30;;;5.13;;
65096;SDS011;51686;46.758;4.356;2023-06-26T07:36:43;9.52;;;4.80;;
65096;SDS011;51686;46.758;4.356;2023-06-26T07:39:30;9.68;;;5.35;;
65096;SDS011;51686;46.758;4.356;2023-06-26T07:42:17;9.38;;;4.95;;
65096;SDS011;51686;46.758;4.356;2023-06-26T07:45:04;8.75;;;4.63;;
65096;SDS011;51686;46.758;4.356;2023-06-26T07:47:56;9.60;;;5.10;;
65096;SDS011;51686;46.758;4.356;2023-06-26T07:50:43;10.15;;;5.18;;
65096;SDS011;51686;46.758;4.356;2023-06-26T07:53:30;15.20;;;6.05;;
65096;SDS011;51686;46.758;4.356;2023-06-26T07:56:17;15.05;;;7.18;;
65096;SDS011;51686;46.758;4.356;2023-06-26T07:59:04;11.60;;;5.68;;
65096;SDS011;51686;46.758;4.356;2023-06-26T08:01:52;10.07;;;5.30;;
65096;SDS011;51686;46.758;4.356;2023-06-26T08:04:40;9.82;;;5.40;;
65096;SDS011;51686;46.758;4.356;2023-06-26T08:07:27;10.07;;;5.70;;
65096;SDS011;51686;46.758;4.356;2023-06-26T08:10:14;9.82;;;5.45;;
65096;SDS011;51686;46.758;4.356;2023-06-26T08:13:01;9.23;;;5.13;;
65096;SDS011;51686;46.758;4.356;2023-06-26T08:15:48;10.30;;;5.47;;
65096;SDS011;51686;46.758;4.356;2023-06-26T08:18:39;9.10;;;5.15;;
65096;SDS011;51686;46.758;4.356;2023-06-26T08:21:26;9.77;;;5.07;;
65096;SDS011;51686;46.758;4.356;2023-06-26T08:24:13;9.02;;;4.80;;
65096;SDS011;51686;46.758;4.356;2023-06-26T08:27:00;10.68;;;5.00;;
65096;SDS011;51686;46.758;4.356;2023-06-26T08:29:47;11.23;;;5.65;;
65096;SDS011;51686;46.758;4.356;2023-06-26T08:32:34;12.40;;;5.63;;
65096;SDS011;51686;46.758;4.356;2023-06-26T08:35:22;10.77;;;5.28;;
65096;SDS011;51686;46.758;4.356;2023-06-26T08:38:12;11.25;;;5.10;;
65096;SDS011;51686;46.758;4.356;2023-06-26T08:40:59;9.05;;;4.40;;
65096;SDS011;51686;46.758;4.356;2023-06-26T08:43:46;8.90;;;4.50;;
65096;SDS011;51686;46.758;4.356;2023-06-26T08:46:34;8.98;;;4.60;;
65096;SDS011;51686;46.758;4.356;2023-06-26T08:49:25;8.50;;;4.47;;
65096;SDS011;51686;46.758;4.356;2023-06-26T08:52:17;9.82;;;4.80;;
65096;SDS011;51686;46.758;4.356;2023-06-26T08:55:09;8.40;;;4.13;;
65096;SDS011;51686;46.758;4.356;2023-06-26T09:00:44;8.60;;;4.68;;
65096;SDS011;51686;46.758;4.356;2023-06-26T09:03:32;8.73;;;4.70;;
65096;SDS011;51686;46.758;4.356;2023-06-26T09:06:19;10.27;;;4.93;;
65096;SDS011;51686;46.758;4.356;2023-06-26T09:09:06;11.52;;;4.72;;
65096;SDS011;51686;46.758;4.356;2023-06-26T09:11:54;10.00;;;4.80;;
65096;SDS011;51686;46.758;4.356;2023-06-26T09:14:41;8.93;;;4.60;;
65096;SDS011;51686;46.758;4.356;2023-06-26T09:17:29;8.27;;;4.15;;
65096;SDS011;51686;46.758;4.356;2023-06-26T09:23:03;8.57;;;4.15;;
65096;SDS011;51686;46.758;4.356;2023-06-26T09:25:51;8.27;;;4.15;;
65096;SDS011;51686;46.758;4.356;2023-06-26T09:28:38;8.43;;;3.90;;
65096;SDS011;51686;46.758;4.356;2023-06-26T09:31:26;8.43;;;4.28;;
65096;SDS011;51686;46.758;4.356;2023-06-26T09:34:31;8.18;;;4.28;;
65096;SDS011;51686;46.758;4.356;2023-06-26T09:37:18;9.82;;;4.88;;
65096;SDS011;51686;46.758;4.356;2023-06-26T09:40:06;8.77;;;4.65;;
65096;SDS011;51686;46.758;4.356;2023-06-26T09:42:56;8.43;;;4.20;;
65096;SDS011;51686;46.758;4.356;2023-06-26T09:45:49;9.30;;;4.50;;
65096;SDS011;51686;46.758;4.356;2023-06-26T09:48:36;10.77;;;5.43;;
65096;SDS011;51686;46.758;4.356;2023-06-26T09:51:23;8.63;;;4.50;;
65096;SDS011;51686;46.758;4.356;2023-06-26T09:54:10;8.00;;;4.13;;
65096;SDS011;51686;46.758;4.356;2023-06-26T09:57:06;8.80;;;4.15;;
65096;SDS011;51686;46.758;4.356;2023-06-26T09:59:57;7.82;;;3.88;;
65096;SDS011;51686;46.758;4.356;2023-06-26T10:02:44;8.07;;;4.25;;
65096;SDS011;51686;46.758;4.356;2023-06-26T10:05:31;8.57;;;4.55;;
65096;SDS011;51686;46.758;4.356;2023-06-26T10:08:18;7.90;;;4.00;;
65096;SDS011;51686;46.758;4.356;2023-06-26T10:11:06;9.30;;;4.30;;
65096;SDS011;51686;46.758;4.356;2023-06-26T10:13:54;8.10;;;4.10;;
65096;SDS011;51686;46.758;4.356;2023-06-26T10:17:01;8.70;;;4.47;;
65096;SDS011;51686;46.758;4.356;2023-06-26T10:19:50;9.73;;;4.28;;
65096;SDS011;51686;46.758;4.356;2023-06-26T10:22:46;8.10;;;3.88;;
65096;SDS011;51686;46.758;4.356;2023-06-26T10:25:34;8.40;;;4.30;;
65096;SDS011;51686;46.758;4.356;2023-06-26T10:28:21;8.57;;;4.00;;
65096;SDS011;51686;46.758;4.356;2023-06-26T10:31:08;9.13;;;4.38;;
65096;SDS011;51686;46.758;4.356;2023-06-26T10:33:56;8.32;;;4.50;;
65096;SDS011;51686;46.758;4.356;2023-06-26T10:36:43;7.72;;;3.83;;
65096;SDS011;51686;46.758;4.356;2023-06-26T10:42:36;7.93;;;3.88;;
65096;SDS011;51686;46.758;4.356;2023-06-26T10:45:23;7.85;;;3.90;;
65096;SDS011;51686;46.758;4.356;2023-06-26T10:48:15;7.97;;;3.95;;
65096;SDS011;51686;46.758;4.356;2023-06-26T10:51:14;7.90;;;3.92;;
65096;SDS011;51686;46.758;4.356;2023-06-26T10:54:01;7.70;;;3.63;;
65096;SDS011;51686;46.758;4.356;2023-06-26T10:56:49;8.73;;;4.10;;
65096;SDS011;51686;46.758;4.356;2023-06-26T10:59:39;8.02;;;3.75;;
65096;SDS011;51686;46.758;4.356;2023-06-26T11:02:26;8.85;;;4.60;;
65096;SDS011;51686;46.758;4.356;2023-06-26T11:05:19;8.68;;;4.25;;
65096;SDS011;51686;46.758;4.356;2023-06-26T11:08:10;8.38;;;4.22;;
65096;SDS011;51686;46.758;4.356;2023-06-26T11:11:00;8.35;;;4.22;;
65096;SDS011;51686;46.758;4.356;2023-06-26T11:13:47;8.63;;;4.22;;
65096;SDS011;51686;46.758;4.356;2023-06-26T11:16:34;7.85;;;3.67;;
65096;SDS011;51686;46.758;4.356;2023-06-26T11:19:21;8.55;;;4.10;;
65096;SDS011;51686;46.758;4.356;2023-06-26T11:22:08;8.05;;;3.92;;
65096;SDS011;51686;46.758;4.356;2023-06-26T11:24:55;8.95;;;4.43;;
65096;SDS011;51686;46.758;4.356;2023-06-26T11:27:46;8.80;;;4.43;;
65096;SDS011;51686;46.758;4.356;2023-06-26T11:30:32;8.35;;;4.30;;
65096;SDS011;51686;46.758;4.356;2023-06-26T11:33:26;8.10;;;4.03;;
65096;SDS011;51686;46.758;4.356;2023-06-26T11:36:13;8.40;;;4.30;;
65096;SDS011;51686;46.758;4.356;2023-06-26T11:39:00;8.10;;;4.03;;
65096;SDS011;51686;46.758;4.356;2023-06-26T11:41:49;7.70;;;3.67;;
65096;SDS011;51686;46.758;4.356;2023-06-26T11:44:39;8.48;;;3.80;;
65096;SDS011;51686;46.758;4.356;2023-06-26T11:47:27;7.80;;;3.60;;
65096;SDS011;51686;46.758;4.356;2023-06-26T11:50:20;7.80;;;3.60;;
65096;SDS011;51686;46.758;4.356;2023-06-26T11:53:07;8.10;;;4.13;;
65096;SDS011;51686;46.758;4.356;2023-06-26T11:55:54;8.00;;;4.07;;
65096;SDS011;51686;46.758;4.356;2023-06-26T11:59:00;7.93;;;4.20;;
65096;SDS011;51686;46.758;4.356;2023-06-26T12:01:53;7.75;;;3.83;;
65096;SDS011;51686;46.758;4.356;2023-06-26T12:04:41;8.52;;;4.15;;
65096;SDS011;51686;46.758;4.356;2023-06-26T12:07:29;8.77;;;4.55;;
65096;SDS011;51686;46.758;4.356;2023-06-26T12:10:17;8.00;;;3.95;;
65096;SDS011;51686;46.758;4.356;2023-06-26T12:13:05;7.68;;;3.72;;
65096;SDS011;51686;46.758;4.356;2023-06-26T12:15:54;7.97;;;3.50;;
65096;SDS011;51686;46.758;4.356;2023-06-26T12:18:40;8.50;;;3.53;;
65096;SDS011;51686;46.758;4.356;2023-06-26T12:21:49;8.05;;;3.78;;
65096;SDS011;51686;46.758;4.356;2023-06-26T12:24:39;7.55;;;3.40;;
65096;SDS011;51686;46.758;4.356;2023-06-26T12:27:26;7.40;;;3.30;;
65096;SDS011;51686;46.758;4.356;2023-06-26T12:30:13;8.10;;;3.50;;
65096;SDS011;51686;46.758;4.356;2023-06-26T12:33:01;8.52;;;3.83;;
65096;SDS011;51686;46.758;4.356;2023-06-26T12:35:48;8.20;;;3.60;;
65096;SDS011;51686;46.758;4.356;2023-06-26T12:38:35;9.48;;;4.07;;
65096;SDS011;51686;46.758;4.356;2023-06-26T12:41:25;8.50;;;4.17;;
65096;SDS011;51686;46.758;4.356;2023-06-26T12:44:22;8.88;;;4.00;;
65096;SDS011;51686;46.758;4.356;2023-06-26T12:47:12;7.68;;;3.67;;
65096;SDS011;51686;46.758;4.356;2023-06-26T12:50:04;8.15;;;4.10;;
65096;SDS011;51686;46.758;4.356;2023-06-26T12:52:52;7.63;;;3.63;;
65096;SDS011;51686;46.758;4.356;2023-06-26T12:55:38;8.07;;;3.90;;
65096;SDS011;51686;46.758;4.356;2023-06-26T12:58:25;8.32;;;4.03;;
65096;SDS011;51686;46.758;4.356;2023-06-26T13:01:12;8.82;;;4.05;;
65096;SDS011;51686;46.758;4.356;2023-06-26T13:04:03;9.10;;;4.20;;
65096;SDS011;51686;46.758;4.356;2023-06-26T13:06:52;8.45;;;3.72;;
65096;SDS011;51686;46.758;4.356;2023-06-26T13:09:41;8.02;;;3.60;;
65096;SDS011;51686;46.758;4.356;2023-06-26T13:12:28;7.60;;;3.78;;
65096;SDS011;51686;46.758;4.356;2023-06-26T13:15:17;7.97;;;3.67;;
65096;SDS011;51686;46.758;4.356;2023-06-26T13:18:05;7.18;;;3.20;;
65096;SDS011;51686;46.758;4.356;2023-06-26T13:20:52;7.50;;;3.30;;
65096;SDS011;51686;46.758;4.356;2023-06-26T13:23:39;6.72;;;3.20;;
65096;SDS011;51686;46.758;4.356;2023-06-26T13:26:26;7.88;;;3.38;;
65096;SDS011;51686;46.758;4.356;2023-06-26T13:29:23;8.50;;;3.70;;
65096;SDS011;51686;46.758;4.356;2023-06-26T13:32:10;7.35;;;3.35;;
65096;SDS011;51686;46.758;4.356;2023-06-26T13:34:57;8.05;;;3.67;;
65096;SDS011;51686;46.758;4.356;2023-06-26T13:37:45;7.50;;;3.45;;
65096;SDS011;51686;46.758;4.356;2023-06-26T13:40:33;7.90;;;3.33;;
65096;SDS011;51686;46.758;4.356;2023-06-26T13:43:20;8.55;;;4.00;;
65096;SDS011;51686;46.758;4.356;2023-06-26T13:46:08;8.10;;;3.90;;
65096;SDS011;51686;46.758;4.356;2023-06-26T13:48:55;8.27;;;3.95;;
65096;SDS011;51686;46.758;4.356;2023-06-26T13:51:42;8.10;;;3.95;;
65096;SDS011;51686;46.758;4.356;2023-06-26T13:54:34;7.82;;;3.92;;
65096;SDS011;51686;46.758;4.356;2023-06-26T13:57:22;8.00;;;3.55;;
65096;SDS011;51686;46.758;4.356;2023-06-26T14:00:09;8.30;;;4.05;;
65096;SDS011;51686;46.758;4.356;2023-06-26T14:02:59;8.23;;;4.25;;
65096;SDS011;51686;46.758;4.356;2023-06-26T14:05:53;8.88;;;4.38;;
65096;SDS011;51686;46.758;4.356;2023-06-26T14:08:40;9.13;;;3.95;;
65096;SDS011;51686;46.758;4.356;2023-06-26T14:11:27;7.95;;;4.07;;
65096;SDS011;51686;46.758;4.356;2023-06-26T14:14:14;7.63;;;3.72;;
65096;SDS011;51686;46.758;4.356;2023-06-26T14:19:49;7.53;;;3.55;;
65096;SDS011;51686;46.758;4.356;2023-06-26T14:22:44;8.00;;;3.75;;
65096;SDS011;51686;46.758;4.356;2023-06-26T14:25:31;7.97;;;3.72;;
65096;SDS011;51686;46.758;4.356;2023-06-26T14:28:18;7.80;;;3.60;;
65096;SDS011;51686;46.758;4.356;2023-06-26T14:31:05;7.82;;;3.25;;
65096;SDS011;51686;46.758;4.356;2023-06-26T14:33:52;7.20;;;3.43;;
65096;SDS011;51686;46.758;4.356;2023-06-26T14:36:39;7.45;;;3.75;;
65096;SDS011;51686;46.758;4.356;2023-06-26T14:39:26;7.83;;;3.73;;
65096;SDS011;51686;46.758;4.356;2023-06-26T14:42:13;7.93;;;3.92;;
65096;SDS011;51686;46.758;4.356;2023-06-26T14:45:00;8.82;;;4.05;;
65096;SDS011;51686;46.758;4.356;2023-06-26T14:47:48;8.00;;;3.75;;
65096;SDS011;51686;46.758;4.356;2023-06-26T14:50:35;8.23;;;3.40;;
65096;SDS011;51686;46.758;4.356;2023-06-26T14:53:22;7.43;;;3.30;;
65096;SDS011;51686;46.758;4.356;2023-06-26T14:56:09;7.32;;;3.30;;
65096;SDS011;51686;46.758;4.356;2023-06-26T14:58:56;7.57;;;3.47;;
65096;SDS011;51686;46.758;4.356;2023-06-26T15:01:42;7.55;;;3.55;;
65096;SDS011;51686;46.758;4.356;2023-06-26T15:04:29;7.60;;;3.47;;
65096;SDS011;51686;46.758;4.356;2023-06-26T15:07:18;7.95;;;3.63;;
65096;SDS011;51686;46.758;4.356;2023-06-26T15:10:05;7.78;;;3.60;;
65096;SDS011;51686;46.758;4.356;2023-06-26T15:12:53;8.05;;;3.75;;
65096;SDS011;51686;46.758;4.356;2023-06-26T15:15:40;7.63;;;3.43;;
65096;SDS011;51686;46.758;4.356;2023-06-26T15:18:28;8.00;;;3.95;;
65096;SDS011;51686;46.758;4.356;2023-06-26T15:21:15;7.70;;;3.70;;
65096;SDS011;51686;46.758;4.356;2023-06-26T15:24:02;6.87;;;3.10;;
65096;SDS011;51686;46.758;4.356;2023-06-26T15:26:50;7.32;;;3.28;;
65096;SDS011;51686;46.758;4.356;2023-06-26T15:29:37;7.97;;;3.47;;
65096;SDS011;51686;46.758;4.356;2023-06-26T15:32:23;7.60;;;3.70;;
65096;SDS011;51686;46.758;4.356;2023-06-26T15:35:10;7.95;;;3.60;;
65096;SDS011;51686;46.758;4.356;2023-06-26T15:37:57;7.20;;;3.50;;
65096;SDS011;51686;46.758;4.356;2023-06-26T15:40:44;8.10;;;3.57;;
65096;SDS011;51686;46.758;4.356;2023-06-26T15:43:31;7.50;;;3.57;;
65096;SDS011;51686;46.758;4.356;2023-06-26T15:49:06;7.70;;;3.70;;
65096;SDS011;51686;46.758;4.356;2023-06-26T15:51:53;7.32;;;3.67;;
65096;SDS011;51686;46.758;4.356;2023-06-26T15:54:39;7.47;;;3.58;;
65096;SDS011;51686;46.758;4.356;2023-06-26T15:57:26;7.40;;;3.57;;
65096;SDS011;51686;46.758;4.356;2023-06-26T16:00:14;7.78;;;3.72;;
65096;SDS011;51686;46.758;4.356;2023-06-26T16:03:02;8.32;;;3.83;;
65096;SDS011;51686;46.758;4.356;2023-06-26T16:05:50;9.65;;;3.92;;
65096;SDS011;51686;46.758;4.356;2023-06-26T16:08:37;8.70;;;4.33;;
65096;SDS011;51686;46.758;4.356;2023-06-26T16:11:24;7.82;;;3.92;;
65096;SDS011;51686;46.758;4.356;2023-06-26T16:14:11;8.00;;;3.90;;
65096;SDS011;51686;46.758;4.356;2023-06-26T16:16:58;7.60;;;3.93;;
65096;SDS011;51686;46.758;4.356;2023-06-26T16:19:45;8.93;;;4.45;;
65096;SDS011;51686;46.758;4.356;2023-06-26T16:22:32;8.77;;;4.22;;
65096;SDS011;51686;46.758;4.356;2023-06-26T16:25:20;8.90;;;4.57;;
65096;SDS011;51686;46.758;4.356;2023-06-26T16:28:07;8.00;;;4.03;;
65096;SDS011;51686;46.758;4.356;2023-06-26T16:30:54;8.02;;;4.10;;
65096;SDS011;51686;46.758;4.356;2023-06-26T16:33:41;7.80;;;3.93;;
65096;SDS011;51686;46.758;4.356;2023-06-26T16:36:28;8.40;;;4.57;;
65096;SDS011;51686;46.758;4.356;2023-06-26T16:39:15;8.40;;;4.25;;
65096;SDS011;51686;46.758;4.356;2023-06-26T16:42:06;8.55;;;4.45;;
65096;SDS011;51686;46.758;4.356;2023-06-26T16:44:53;8.00;;;4.40;;
65096;SDS011;51686;46.758;4.356;2023-06-26T16:47:41;9.05;;;4.68;;
65096;SDS011;51686;46.758;4.356;2023-06-26T16:50:28;9.90;;;4.70;;
65096;SDS011;51686;46.758;4.356;2023-06-26T16:53:15;8.25;;;4.45;;
65096;SDS011;51686;46.758;4.356;2023-06-26T16:56:02;8.73;;;4.63;;
65096;SDS011;51686;46.758;4.356;2023-06-26T16:58:49;8.57;;;4.30;;
65096;SDS011;51686;46.758;4.356;2023-06-26T17:01:36;8.48;;;4.25;;
65096;SDS011;51686;46.758;4.356;2023-06-26T17:04:23;8.77;;;4.40;;
65096;SDS011;51686;46.758;4.356;2023-06-26T17:07:10;10.48;;;4.78;;
65096;SDS011;51686;46.758;4.356;2023-06-26T17:09:57;8.40;;;4.45;;
65096;SDS011;51686;46.758;4.356;2023-06-26T17:12:44;9.57;;;4.73;;